Friesland, WI (53935)

6:21 AM CDT on September 20, 2014 (GMT -0500)
2 miles North of | Change Station
CLOSE
Current Station
Personal Weather Station
Location: Beaver Dam, WI
Elevation: 889 ft
Nearby Weather Stations

Elev 889 ft 43.50 °N, 88.86 °W | Updated 3 minutes ago

Rain
Rain
62.1 °F
Feels Like 62.1 °F
N
3.0
Wind Variable Wind from SSW
Gusts 5.0 mph

Today
High -- | Low -- °F
--% Chance of Precip.
Yesterday
High -- | Low -- °F
Precip. -- in
6:41 AM 6:57 PM
Waning Crescent, 13% visible
Pressure 29.79 in
Visibility 5.0 miles
Clouds Scattered Clouds 10000 ft
Dew Point 62 °F
Humidity 99%
Rainfall 0.09 in
Snow Depth Not available.
UV 0 out of 12
Pollen .60 out of 12
Air Quality Not available.
Flu Activity Not available.
METAR KUNU 201115Z AUTO 20012KT 5SM BR SCT100 16/15 A2979 RMK AO2 T01640153

More Conditions Fewer Conditions

Pressure 29.79 in
Visibility 5.0 miles
Clouds Scattered Clouds 10000 ft
Dew Point 62 °F
Humidity 99%
Rainfall 0.09 in
Snow Depth Not available.
UV 0 out of 12
Pollen .60 out of 12
Air Quality Not available.
Flu Activity Not available.
METAR KUNU 201115Z AUTO 20012KT 5SM BR SCT100 16/15 A2979 RMK AO2 T01640153

More Conditions Fewer Conditions

Nowcast | as of 5:28 am CDT on September 20, 2014

Scattered showers and thunderstorms will continue to affect south central and southeast Wisconsin through the early morning. Brief heavy rainfall may accompany some of the showers and thunderstorms. Wind gusts to 35 mph are also possible. These showers and thunderstorms will diminish through the early morning...however the chance for more showers will continue from late morning through the afternoon.

×

10-Day Weather Forecast

Almanac

Astronomy

Sep. 20, 2014 Rise Set
Actual Time 6:41 AM CDT 6:57 PM CDT
Civil Twilight 6:12 AM CDT 7:25 PM CDT
Nautical Twilight 5:38 AM CDT 7:59 PM CDT
Astronomical Twilight 5:04 AM CDT 8:33 PM CDT
Moon 3:15 AM CDT 5:04 PM CDT
Length of Visible Light 13h 13m
Length of Day
12h 16m
Tomorrow will be 2m 58s shorter.
Waning Crescent, 13% of the Moon is Illuminated
Today
Waning Crescent
Sep 24
New
Oct 1
First Quarter
Oct 8
Full
Oct 15
Last Quarter

Today's Extremes

State Highs State Lows

Community

WunderPhotos

Upload Photos

1,754,832 photos uploaded!

WunderBlogs® & News

Nearby

Snow Depth

Station Depth Elevation
No new snow has been reported.

Earthquake Activity

City Distance Mag. Time & Date
No recent earthquake activity has been reported nearby.
Minimum magnitude displayed is 2.5.

Coastal Water Temperatures

Place Temperature
No Stations Reporting

Nearby Weather Stations